sensor_id;sensor_type;location;lat;lon;timestamp;temperature;humidity
16158;DHT22;8184;60.256;18.694;2023-06-22T00:00:27;19.80;99.90
16158;DHT22;8184;60.256;18.694;2023-06-22T00:02:56;19.80;99.90
16158;DHT22;8184;60.256;18.694;2023-06-22T00:05:25;19.80;99.90
16158;DHT22;8184;60.256;18.694;2023-06-22T00:07:54;19.70;99.90
16158;DHT22;8184;60.256;18.694;2023-06-22T00:10:22;19.70;99.90
16158;DHT22;8184;60.256;18.694;2023-06-22T00:12:53;19.70;99.90
16158;DHT22;8184;60.256;18.694;2023-06-22T00:15:21;19.70;99.90
16158;DHT22;8184;60.256;18.694;2023-06-22T00:17:50;19.70;99.90
16158;DHT22;8184;60.256;18.694;2023-06-22T00:20:19;19.70;99.90
16158;DHT22;8184;60.256;18.694;2023-06-22T00:22:47;19.70;99.90
16158;DHT22;8184;60.256;18.694;2023-06-22T00:25:16;19.70;99.90
16158;DHT22;8184;60.256;18.694;2023-06-22T00:27:44;19.60;99.90
16158;DHT22;8184;60.256;18.694;2023-06-22T00:30:13;19.70;99.90
16158;DHT22;8184;60.256;18.694;2023-06-22T00:32:41;19.70;99.90
16158;DHT22;8184;60.256;18.694;2023-06-22T00:35:12;19.70;99.90
16158;DHT22;8184;60.256;18.694;2023-06-22T00:37:41;19.70;99.90
16158;DHT22;8184;60.256;18.694;2023-06-22T00:40:10;19.70;99.90
16158;DHT22;8184;60.256;18.694;2023-06-22T00:42:38;19.60;99.90
16158;DHT22;8184;60.256;18.694;2023-06-22T00:45:07;19.60;99.90
16158;DHT22;8184;60.256;18.694;2023-06-22T00:47:35;19.60;99.90
16158;DHT22;8184;60.256;18.694;2023-06-22T00:50:05;19.50;99.90
16158;DHT22;8184;60.256;18.694;2023-06-22T00:52:40;19.70;99.90
16158;DHT22;8184;60.256;18.694;2023-06-22T00:55:12;19.60;99.90
16158;DHT22;8184;60.256;18.694;2023-06-22T00:57:45;19.60;99.90
16158;DHT22;8184;60.256;18.694;2023-06-22T01:00:14;19.50;99.90
16158;DHT22;8184;60.256;18.694;2023-06-22T01:02:44;19.60;99.90
16158;DHT22;8184;60.256;18.694;2023-06-22T01:05:13;19.50;99.90
16158;DHT22;8184;60.256;18.694;2023-06-22T01:07:45;19.50;99.90
16158;DHT22;8184;60.256;18.694;2023-06-22T01:10:16;19.60;99.90
16158;DHT22;8184;60.256;18.694;2023-06-22T01:12:48;19.50;99.90
16158;DHT22;8184;60.256;18.694;2023-06-22T01:15:21;19.50;99.90
16158;DHT22;8184;60.256;18.694;2023-06-22T01:17:51;19.50;99.90
16158;DHT22;8184;60.256;18.694;2023-06-22T01:20:20;19.40;99.90
16158;DHT22;8184;60.256;18.694;2023-06-22T01:22:55;19.50;99.90
16158;DHT22;8184;60.256;18.694;2023-06-22T01:25:26;19.40;99.90
16158;DHT22;8184;60.256;18.694;2023-06-22T01:27:59;19.40;99.90
16158;DHT22;8184;60.256;18.694;2023-06-22T01:30:32;19.50;99.90
16158;DHT22;8184;60.256;18.694;2023-06-22T01:33:01;19.50;99.90
16158;DHT22;8184;60.256;18.694;2023-06-22T01:35:35;19.40;99.90
16158;DHT22;8184;60.256;18.694;2023-06-22T01:38:03;19.50;99.90
16158;DHT22;8184;60.256;18.694;2023-06-22T01:40:32;19.50;99.90
16158;DHT22;8184;60.256;18.694;2023-06-22T01:43:01;19.50;99.90
16158;DHT22;8184;60.256;18.694;2023-06-22T01:45:32;19.50;99.90
16158;DHT22;8184;60.256;18.694;2023-06-22T01:48:01;19.50;99.90
16158;DHT22;8184;60.256;18.694;2023-06-22T01:50:30;19.50;99.90
16158;DHT22;8184;60.256;18.694;2023-06-22T01:52:58;19.40;99.90
16158;DHT22;8184;60.256;18.694;2023-06-22T01:55:29;19.40;99.90
16158;DHT22;8184;60.256;18.694;2023-06-22T01:57:57;19.50;99.90
16158;DHT22;8184;60.256;18.694;2023-06-22T02:00:26;19.40;99.90
16158;DHT22;8184;60.256;18.694;2023-06-22T02:03:01;19.40;99.90
16158;DHT22;8184;60.256;18.694;2023-06-22T02:05:31;19.40;99.90
16158;DHT22;8184;60.256;18.694;2023-06-22T02:08:02;19.40;99.90
16158;DHT22;8184;60.256;18.694;2023-06-22T02:10:34;19.30;99.90
16158;DHT22;8184;60.256;18.694;2023-06-22T02:13:03;19.40;99.90
16158;DHT22;8184;60.256;18.694;2023-06-22T02:15:32;19.30;99.90
16158;DHT22;8184;60.256;18.694;2023-06-22T02:18:02;19.30;99.90
16158;DHT22;8184;60.256;18.694;2023-06-22T02:20:31;19.40;99.90
16158;DHT22;8184;60.256;18.694;2023-06-22T02:22:59;19.30;99.90
16158;DHT22;8184;60.256;18.694;2023-06-22T02:25:27;19.20;99.90
16158;DHT22;8184;60.256;18.694;2023-06-22T02:27:55;19.40;99.90
16158;DHT22;8184;60.256;18.694;2023-06-22T02:30:23;19.30;99.90
16158;DHT22;8184;60.256;18.694;2023-06-22T02:32:52;19.40;99.90
16158;DHT22;8184;60.256;18.694;2023-06-22T02:35:27;19.40;99.90
16158;DHT22;8184;60.256;18.694;2023-06-22T02:37:58;19.30;99.90
16158;DHT22;8184;60.256;18.694;2023-06-22T02:40:28;19.30;99.90
16158;DHT22;8184;60.256;18.694;2023-06-22T02:42:57;19.30;99.90
16158;DHT22;8184;60.256;18.694;2023-06-22T02:45:29;19.30;99.90
16158;DHT22;8184;60.256;18.694;2023-06-22T02:47:57;19.40;99.90
16158;DHT22;8184;60.256;18.694;2023-06-22T02:50:27;19.50;99.90
16158;DHT22;8184;60.256;18.694;2023-06-22T02:52:56;19.60;99.90
16158;DHT22;8184;60.256;18.694;2023-06-22T02:55:27;19.60;99.90
16158;DHT22;8184;60.256;18.694;2023-06-22T02:57:55;19.50;99.90
16158;DHT22;8184;60.256;18.694;2023-06-22T03:00:24;19.50;99.90
16158;DHT22;8184;60.256;18.694;2023-06-22T03:02:57;19.50;99.90
16158;DHT22;8184;60.256;18.694;2023-06-22T03:05:27;19.40;99.90
16158;DHT22;8184;60.256;18.694;2023-06-22T03:07:55;19.50;99.90
16158;DHT22;8184;60.256;18.694;2023-06-22T03:10:24;19.50;99.90
16158;DHT22;8184;60.256;18.694;2023-06-22T03:12:53;19.60;99.90
16158;DHT22;8184;60.256;18.694;2023-06-22T03:15:21;19.50;99.90
16158;DHT22;8184;60.256;18.694;2023-06-22T03:17:49;19.60;99.90
16158;DHT22;8184;60.256;18.694;2023-06-22T03:20:18;19.70;99.90
16158;DHT22;8184;60.256;18.694;2023-06-22T03:22:48;19.80;99.90
16158;DHT22;8184;60.256;18.694;2023-06-22T03:25:16;19.70;99.90
16158;DHT22;8184;60.256;18.694;2023-06-22T03:27:45;19.70;99.90
16158;DHT22;8184;60.256;18.694;2023-06-22T03:30:14;19.50;99.90
16158;DHT22;8184;60.256;18.694;2023-06-22T03:32:45;19.50;99.90
16158;DHT22;8184;60.256;18.694;2023-06-22T03:35:14;19.50;99.90
16158;DHT22;8184;60.256;18.694;2023-06-22T03:37:42;19.50;99.90
16158;DHT22;8184;60.256;18.694;2023-06-22T03:40:12;19.50;99.90
16158;DHT22;8184;60.256;18.694;2023-06-22T03:42:40;19.50;99.90
16158;DHT22;8184;60.256;18.694;2023-06-22T03:45:09;19.50;99.90
16158;DHT22;8184;60.256;18.694;2023-06-22T03:47:38;19.50;99.90
16158;DHT22;8184;60.256;18.694;2023-06-22T03:50:06;19.60;99.90
16158;DHT22;8184;60.256;18.694;2023-06-22T03:52:35;19.70;99.90
16158;DHT22;8184;60.256;18.694;2023-06-22T03:55:03;19.60;99.90
16158;DHT22;8184;60.256;18.694;2023-06-22T03:57:35;19.60;99.90
16158;DHT22;8184;60.256;18.694;2023-06-22T04:00:04;19.90;99.90
16158;DHT22;8184;60.256;18.694;2023-06-22T04:02:35;19.80;99.90
16158;DHT22;8184;60.256;18.694;2023-06-22T04:05:03;19.80;99.90
16158;DHT22;8184;60.256;18.694;2023-06-22T04:07:32;19.70;99.90
16158;DHT22;8184;60.256;18.694;2023-06-22T04:10:00;19.70;99.90
16158;DHT22;8184;60.256;18.694;2023-06-22T04:12:32;19.50;99.90
16158;DHT22;8184;60.256;18.694;2023-06-22T04:15:02;19.70;99.90
16158;DHT22;8184;60.256;18.694;2023-06-22T04:17:33;19.70;99.90
16158;DHT22;8184;60.256;18.694;2023-06-22T04:20:01;19.80;99.90
16158;DHT22;8184;60.256;18.694;2023-06-22T04:22:32;19.80;99.90
16158;DHT22;8184;60.256;18.694;2023-06-22T04:25:00;19.90;99.90
16158;DHT22;8184;60.256;18.694;2023-06-22T04:27:28;20.10;99.90
16158;DHT22;8184;60.256;18.694;2023-06-22T04:29:57;20.10;99.90
16158;DHT22;8184;60.256;18.694;2023-06-22T04:32:30;19.90;99.90
16158;DHT22;8184;60.256;18.694;2023-06-22T04:34:59;19.90;99.90
16158;DHT22;8184;60.256;18.694;2023-06-22T04:37:28;20.00;99.90
16158;DHT22;8184;60.256;18.694;2023-06-22T04:39:56;20.00;99.90
16158;DHT22;8184;60.256;18.694;2023-06-22T04:42:25;20.20;99.90
16158;DHT22;8184;60.256;18.694;2023-06-22T04:44:54;20.30;99.90
16158;DHT22;8184;60.256;18.694;2023-06-22T04:47:22;20.40;99.90
16158;DHT22;8184;60.256;18.694;2023-06-22T04:49:52;20.40;99.90
16158;DHT22;8184;60.256;18.694;2023-06-22T04:52:20;20.50;99.90
16158;DHT22;8184;60.256;18.694;2023-06-22T04:54:48;20.50;99.90
16158;DHT22;8184;60.256;18.694;2023-06-22T04:57:22;20.60;99.90
16158;DHT22;8184;60.256;18.694;2023-06-22T04:59:59;20.60;99.90
16158;DHT22;8184;60.256;18.694;2023-06-22T05:02:38;20.50;99.90
16158;DHT22;8184;60.256;18.694;2023-06-22T05:05:11;20.50;99.90
16158;DHT22;8184;60.256;18.694;2023-06-22T05:07:41;20.60;99.90
16158;DHT22;8184;60.256;18.694;2023-06-22T05:10:10;20.60;99.90
16158;DHT22;8184;60.256;18.694;2023-06-22T05:12:39;20.40;99.90
16158;DHT22;8184;60.256;18.694;2023-06-22T05:15:10;20.50;99.90
16158;DHT22;8184;60.256;18.694;2023-06-22T05:17:41;20.30;99.90
16158;DHT22;8184;60.256;18.694;2023-06-22T05:20:13;20.60;99.90
16158;DHT22;8184;60.256;18.694;2023-06-22T05:22:45;20.80;99.90
16158;DHT22;8184;60.256;18.694;2023-06-22T05:25:13;20.80;99.90
16158;DHT22;8184;60.256;18.694;2023-06-22T05:27:41;20.80;99.90
16158;DHT22;8184;60.256;18.694;2023-06-22T05:30:11;21.10;99.90
16158;DHT22;8184;60.256;18.694;2023-06-22T05:32:39;20.80;99.90
16158;DHT22;8184;60.256;18.694;2023-06-22T05:35:08;20.90;99.90
16158;DHT22;8184;60.256;18.694;2023-06-22T05:37:38;21.00;99.90
16158;DHT22;8184;60.256;18.694;2023-06-22T05:40:07;21.20;99.90
16158;DHT22;8184;60.256;18.694;2023-06-22T05:42:36;21.20;99.90
16158;DHT22;8184;60.256;18.694;2023-06-22T05:45:05;21.40;99.90
16158;DHT22;8184;60.256;18.694;2023-06-22T05:47:36;21.40;99.90
16158;DHT22;8184;60.256;18.694;2023-06-22T05:50:04;21.10;99.90
16158;DHT22;8184;60.256;18.694;2023-06-22T05:52:40;21.20;99.90
16158;DHT22;8184;60.256;18.694;2023-06-22T05:55:10;21.20;99.90
16158;DHT22;8184;60.256;18.694;2023-06-22T05:57:38;21.00;99.90
16158;DHT22;8184;60.256;18.694;2023-06-22T06:00:07;20.80;99.90
16158;DHT22;8184;60.256;18.694;2023-06-22T06:02:38;20.90;99.90
16158;DHT22;8184;60.256;18.694;2023-06-22T06:05:11;21.10;99.90
16158;DHT22;8184;60.256;18.694;2023-06-22T06:07:41;21.30;99.90
16158;DHT22;8184;60.256;18.694;2023-06-22T06:10:12;21.20;99.90
16158;DHT22;8184;60.256;18.694;2023-06-22T06:12:40;21.40;99.90
16158;DHT22;8184;60.256;18.694;2023-06-22T06:15:10;21.40;99.90
16158;DHT22;8184;60.256;18.694;2023-06-22T06:17:44;21.40;99.90
16158;DHT22;8184;60.256;18.694;2023-06-22T06:20:13;21.80;99.90
16158;DHT22;8184;60.256;18.694;2023-06-22T06:22:43;22.10;99.90
16158;DHT22;8184;60.256;18.694;2023-06-22T06:25:11;22.30;99.90
16158;DHT22;8184;60.256;18.694;2023-06-22T06:27:45;22.50;99.90
16158;DHT22;8184;60.256;18.694;2023-06-22T06:30:17;22.60;99.90
16158;DHT22;8184;60.256;18.694;2023-06-22T06:32:46;22.70;99.90
16158;DHT22;8184;60.256;18.694;2023-06-22T06:35:16;23.10;99.90
16158;DHT22;8184;60.256;18.694;2023-06-22T06:37:47;23.10;99.90
16158;DHT22;8184;60.256;18.694;2023-06-22T06:40:15;23.20;99.90
16158;DHT22;8184;60.256;18.694;2023-06-22T06:42:45;23.20;99.90
16158;DHT22;8184;60.256;18.694;2023-06-22T06:45:15;23.20;99.90
16158;DHT22;8184;60.256;18.694;2023-06-22T06:47:43;23.10;99.90
16158;DHT22;8184;60.256;18.694;2023-06-22T06:50:19;23.50;99.90
16158;DHT22;8184;60.256;18.694;2023-06-22T06:52:51;23.90;99.90
16158;DHT22;8184;60.256;18.694;2023-06-22T06:55:20;23.70;99.90
16158;DHT22;8184;60.256;18.694;2023-06-22T06:57:51;23.80;99.90
16158;DHT22;8184;60.256;18.694;2023-06-22T07:00:19;23.70;99.90
16158;DHT22;8184;60.256;18.694;2023-06-22T07:02:52;23.50;99.90
16158;DHT22;8184;60.256;18.694;2023-06-22T07:05:23;23.50;99.90
16158;DHT22;8184;60.256;18.694;2023-06-22T07:07:55;23.00;99.90
16158;DHT22;8184;60.256;18.694;2023-06-22T07:10:26;23.00;99.90
16158;DHT22;8184;60.256;18.694;2023-06-22T07:12:55;23.10;99.90
16158;DHT22;8184;60.256;18.694;2023-06-22T07:15:26;22.90;99.90
16158;DHT22;8184;60.256;18.694;2023-06-22T07:17:56;23.40;99.90
16158;DHT22;8184;60.256;18.694;2023-06-22T07:20:25;23.80;99.90
16158;DHT22;8184;60.256;18.694;2023-06-22T07:22:53;23.90;99.90
16158;DHT22;8184;60.256;18.694;2023-06-22T07:25:23;24.40;99.90
16158;DHT22;8184;60.256;18.694;2023-06-22T07:27:58;24.70;99.90
16158;DHT22;8184;60.256;18.694;2023-06-22T07:30:26;24.00;99.90
16158;DHT22;8184;60.256;18.694;2023-06-22T07:32:56;23.50;99.90
16158;DHT22;8184;60.256;18.694;2023-06-22T07:35:24;23.20;99.90
16158;DHT22;8184;60.256;18.694;2023-06-22T07:37:56;23.40;99.90
16158;DHT22;8184;60.256;18.694;2023-06-22T07:40:27;23.20;99.90
16158;DHT22;8184;60.256;18.694;2023-06-22T07:42:56;23.40;99.90
16158;DHT22;8184;60.256;18.694;2023-06-22T07:45:24;23.90;99.90
16158;DHT22;8184;60.256;18.694;2023-06-22T07:47:53;23.90;99.90
16158;DHT22;8184;60.256;18.694;2023-06-22T07:50:24;23.50;99.90
16158;DHT22;8184;60.256;18.694;2023-06-22T07:52:55;23.10;99.90
16158;DHT22;8184;60.256;18.694;2023-06-22T07:55:23;22.80;99.90
16158;DHT22;8184;60.256;18.694;2023-06-22T07:57:56;22.80;99.90
16158;DHT22;8184;60.256;18.694;2023-06-22T08:00:24;23.00;99.90
16158;DHT22;8184;60.256;18.694;2023-06-22T08:02:53;23.00;99.90
16158;DHT22;8184;60.256;18.694;2023-06-22T08:05:23;23.50;99.90
16158;DHT22;8184;60.256;18.694;2023-06-22T08:07:51;23.70;99.90
16158;DHT22;8184;60.256;18.694;2023-06-22T08:10:21;23.80;99.90
16158;DHT22;8184;60.256;18.694;2023-06-22T08:12:49;23.60;99.90
16158;DHT22;8184;60.256;18.694;2023-06-22T08:15:20;23.90;99.90
16158;DHT22;8184;60.256;18.694;2023-06-22T08:17:49;24.20;99.90
16158;DHT22;8184;60.256;18.694;2023-06-22T08:20:19;24.10;99.90
16158;DHT22;8184;60.256;18.694;2023-06-22T08:22:48;24.40;99.90
16158;DHT22;8184;60.256;18.694;2023-06-22T08:25:16;24.10;99.90
16158;DHT22;8184;60.256;18.694;2023-06-22T08:27:45;24.10;99.90
16158;DHT22;8184;60.256;18.694;2023-06-22T08:30:14;23.80;99.90
16158;DHT22;8184;60.256;18.694;2023-06-22T08:32:44;24.50;99.90
16158;DHT22;8184;60.256;18.694;2023-06-22T08:35:12;24.60;99.90
16158;DHT22;8184;60.256;18.694;2023-06-22T08:37:40;24.50;99.90
16158;DHT22;8184;60.256;18.694;2023-06-22T08:40:09;24.50;99.90
16158;DHT22;8184;60.256;18.694;2023-06-22T08:42:40;24.00;99.90
16158;DHT22;8184;60.256;18.694;2023-06-22T08:45:09;23.80;99.90
16158;DHT22;8184;60.256;18.694;2023-06-22T08:47:41;23.40;99.90
16158;DHT22;8184;60.256;18.694;2023-06-22T08:50:11;24.00;99.90
16158;DHT22;8184;60.256;18.694;2023-06-22T08:52:40;24.50;99.90
16158;DHT22;8184;60.256;18.694;2023-06-22T08:55:09;24.00;99.90
16158;DHT22;8184;60.256;18.694;2023-06-22T08:57:37;24.30;99.90
16158;DHT22;8184;60.256;18.694;2023-06-22T09:00:08;24.30;99.90
16158;DHT22;8184;60.256;18.694;2023-06-22T09:02:43;24.30;99.90
16158;DHT22;8184;60.256;18.694;2023-06-22T09:05:16;24.80;99.90
16158;DHT22;8184;60.256;18.694;2023-06-22T09:07:45;24.10;99.90
16158;DHT22;8184;60.256;18.694;2023-06-22T09:10:13;24.30;99.90
16158;DHT22;8184;60.256;18.694;2023-06-22T09:12:41;24.70;99.90
16158;DHT22;8184;60.256;18.694;2023-06-22T09:15:10;25.00;99.90
16158;DHT22;8184;60.256;18.694;2023-06-22T09:17:42;25.00;99.90
16158;DHT22;8184;60.256;18.694;2023-06-22T09:20:13;24.90;99.90
16158;DHT22;8184;60.256;18.694;2023-06-22T09:22:44;24.70;99.90
16158;DHT22;8184;60.256;18.694;2023-06-22T09:25:12;24.70;99.90
16158;DHT22;8184;60.256;18.694;2023-06-22T09:27:40;24.00;99.90
16158;DHT22;8184;60.256;18.694;2023-06-22T09:30:09;24.40;99.90
16158;DHT22;8184;60.256;18.694;2023-06-22T09:32:38;24.60;99.90
16158;DHT22;8184;60.256;18.694;2023-06-22T09:35:07;24.30;99.90
16158;DHT22;8184;60.256;18.694;2023-06-22T09:37:44;24.60;99.90
16158;DHT22;8184;60.256;18.694;2023-06-22T09:40:12;24.60;99.90
16158;DHT22;8184;60.256;18.694;2023-06-22T09:42:43;24.90;99.90
16158;DHT22;8184;60.256;18.694;2023-06-22T09:45:17;24.50;99.90
16158;DHT22;8184;60.256;18.694;2023-06-22T09:47:46;24.90;99.90
16158;DHT22;8184;60.256;18.694;2023-06-22T09:50:14;25.20;99.90
16158;DHT22;8184;60.256;18.694;2023-06-22T09:52:46;24.40;99.90
16158;DHT22;8184;60.256;18.694;2023-06-22T09:55:17;24.60;99.90
16158;DHT22;8184;60.256;18.694;2023-06-22T09:57:45;25.20;99.90
16158;DHT22;8184;60.256;18.694;2023-06-22T10:00:15;25.20;99.90
16158;DHT22;8184;60.256;18.694;2023-06-22T10:02:46;24.90;99.90
16158;DHT22;8184;60.256;18.694;2023-06-22T10:05:14;25.30;99.90
16158;DHT22;8184;60.256;18.694;2023-06-22T10:07:43;25.60;99.90
16158;DHT22;8184;60.256;18.694;2023-06-22T10:10:13;25.50;99.90
16158;DHT22;8184;60.256;18.694;2023-06-22T10:12:42;25.50;99.90
16158;DHT22;8184;60.256;18.694;2023-06-22T10:15:11;26.00;99.90
16158;DHT22;8184;60.256;18.694;2023-06-22T10:17:40;26.20;99.90
16158;DHT22;8184;60.256;18.694;2023-06-22T10:20:09;25.70;99.90
16158;DHT22;8184;60.256;18.694;2023-06-22T10:22:40;26.00;99.90
16158;DHT22;8184;60.256;18.694;2023-06-22T10:25:09;25.60;99.90
16158;DHT22;8184;60.256;18.694;2023-06-22T10:27:39;25.30;99.90
16158;DHT22;8184;60.256;18.694;2023-06-22T10:30:08;25.00;99.90
16158;DHT22;8184;60.256;18.694;2023-06-22T10:32:37;25.60;99.90
16158;DHT22;8184;60.256;18.694;2023-06-22T10:35:05;26.20;99.90
16158;DHT22;8184;60.256;18.694;2023-06-22T10:37:34;26.30;99.90
16158;DHT22;8184;60.256;18.694;2023-06-22T10:40:02;26.00;99.90
16158;DHT22;8184;60.256;18.694;2023-06-22T10:42:32;26.00;99.90
16158;DHT22;8184;60.256;18.694;2023-06-22T10:45:02;25.10;99.90
16158;DHT22;8184;60.256;18.694;2023-06-22T10:47:31;25.40;99.90
16158;DHT22;8184;60.256;18.694;2023-06-22T10:49:59;25.80;99.90
16158;DHT22;8184;60.256;18.694;2023-06-22T10:52:28;26.10;99.90
16158;DHT22;8184;60.256;18.694;2023-06-22T10:54:57;26.10;99.90
16158;DHT22;8184;60.256;18.694;2023-06-22T10:57:25;26.70;99.90
16158;DHT22;8184;60.256;18.694;2023-06-22T10:59:54;27.00;99.90
16158;DHT22;8184;60.256;18.694;2023-06-22T11:02:24;26.90;99.90
16158;DHT22;8184;60.256;18.694;2023-06-22T11:04:55;27.10;99.90
16158;DHT22;8184;60.256;18.694;2023-06-22T11:07:32;27.10;99.90
16158;DHT22;8184;60.256;18.694;2023-06-22T11:10:00;27.00;99.90
16158;DHT22;8184;60.256;18.694;2023-06-22T11:12:29;27.20;99.90
16158;DHT22;8184;60.256;18.694;2023-06-22T11:14:57;26.80;99.90
16158;DHT22;8184;60.256;18.694;2023-06-22T11:17:30;27.10;99.90
16158;DHT22;8184;60.256;18.694;2023-06-22T11:19:58;26.90;99.90
16158;DHT22;8184;60.256;18.694;2023-06-22T11:22:27;27.00;99.90
16158;DHT22;8184;60.256;18.694;2023-06-22T11:24:56;26.80;99.90
16158;DHT22;8184;60.256;18.694;2023-06-22T11:27:25;27.00;99.90
16158;DHT22;8184;60.256;18.694;2023-06-22T11:29:53;26.40;99.90
16158;DHT22;8184;60.256;18.694;2023-06-22T11:32:22;26.90;99.90
16158;DHT22;8184;60.256;18.694;2023-06-22T11:34:54;26.90;99.90
16158;DHT22;8184;60.256;18.694;2023-06-22T11:37:22;27.00;99.90
16158;DHT22;8184;60.256;18.694;2023-06-22T11:39:51;27.30;99.90
16158;DHT22;8184;60.256;18.694;2023-06-22T11:42:33;27.30;99.90
16158;DHT22;8184;60.256;18.694;2023-06-22T11:45:01;27.50;99.90
16158;DHT22;8184;60.256;18.694;2023-06-22T11:47:31;27.80;99.90
16158;DHT22;8184;60.256;18.694;2023-06-22T11:50:01;27.60;99.90
16158;DHT22;8184;60.256;18.694;2023-06-22T11:52:29;28.50;99.90
16158;DHT22;8184;60.256;18.694;2023-06-22T11:54:58;28.60;99.90
16158;DHT22;8184;60.256;18.694;2023-06-22T11:57:27;28.40;99.90
16158;DHT22;8184;60.256;18.694;2023-06-22T11:59:55;27.60;99.90
16158;DHT22;8184;60.256;18.694;2023-06-22T12:02:23;27.00;99.90
16158;DHT22;8184;60.256;18.694;2023-06-22T12:05:02;27.10;99.90
16158;DHT22;8184;60.256;18.694;2023-06-22T12:07:31;28.00;99.90
16158;DHT22;8184;60.256;18.694;2023-06-22T12:09:59;27.60;99.90
16158;DHT22;8184;60.256;18.694;2023-06-22T12:12:30;27.60;99.90
16158;DHT22;8184;60.256;18.694;2023-06-22T12:14:58;27.20;99.90
16158;DHT22;8184;60.256;18.694;2023-06-22T12:17:30;27.10;99.90
16158;DHT22;8184;60.256;18.694;2023-06-22T12:19:58;26.80;99.90
16158;DHT22;8184;60.256;18.694;2023-06-22T12:22:28;26.70;99.90
16158;DHT22;8184;60.256;18.694;2023-06-22T12:24:56;26.20;99.90
16158;DHT22;8184;60.256;18.694;2023-06-22T12:27:27;26.60;99.90
16158;DHT22;8184;60.256;18.694;2023-06-22T12:29:57;27.40;99.90
16158;DHT22;8184;60.256;18.694;2023-06-22T12:32:25;27.80;99.90
16158;DHT22;8184;60.256;18.694;2023-06-22T12:34:53;26.90;99.90
16158;DHT22;8184;60.256;18.694;2023-06-22T12:37:22;27.30;99.90
16158;DHT22;8184;60.256;18.694;2023-06-22T12:39:54;27.70;99.90
16158;DHT22;8184;60.256;18.694;2023-06-22T12:42:23;27.60;99.90
16158;DHT22;8184;60.256;18.694;2023-06-22T12:44:53;27.60;99.90
16158;DHT22;8184;60.256;18.694;2023-06-22T12:47:21;28.10;99.90
16158;DHT22;8184;60.256;18.694;2023-06-22T12:49:50;27.20;99.90
16158;DHT22;8184;60.256;18.694;2023-06-22T12:52:18;27.60;99.90
16158;DHT22;8184;60.256;18.694;2023-06-22T12:54:47;27.40;99.90
16158;DHT22;8184;60.256;18.694;2023-06-22T12:57:23;28.20;99.90
16158;DHT22;8184;60.256;18.694;2023-06-22T12:59:54;29.00;99.90
16158;DHT22;8184;60.256;18.694;2023-06-22T13:02:22;29.40;99.90
16158;DHT22;8184;60.256;18.694;2023-06-22T13:04:51;28.80;99.90
16158;DHT22;8184;60.256;18.694;2023-06-22T13:07:19;28.90;99.90
16158;DHT22;8184;60.256;18.694;2023-06-22T13:09:49;28.50;99.90
16158;DHT22;8184;60.256;18.694;2023-06-22T13:12:19;28.90;99.90
16158;DHT22;8184;60.256;18.694;2023-06-22T13:14:52;28.70;99.90
16158;DHT22;8184;60.256;18.694;2023-06-22T13:17:20;29.50;99.90
16158;DHT22;8184;60.256;18.694;2023-06-22T13:19:48;29.30;99.90
16158;DHT22;8184;60.256;18.694;2023-06-22T13:22:27;29.20;99.90
16158;DHT22;8184;60.256;18.694;2023-06-22T13:24:58;29.60;99.90
16158;DHT22;8184;60.256;18.694;2023-06-22T13:27:27;29.50;99.90
16158;DHT22;8184;60.256;18.694;2023-06-22T13:29:56;28.30;99.90
16158;DHT22;8184;60.256;18.694;2023-06-22T13:32:30;28.70;99.90
16158;DHT22;8184;60.256;18.694;2023-06-22T13:35:00;29.00;99.90
16158;DHT22;8184;60.256;18.694;2023-06-22T13:37:31;29.40;99.90
16158;DHT22;8184;60.256;18.694;2023-06-22T13:40:06;29.60;99.90
16158;DHT22;8184;60.256;18.694;2023-06-22T13:42:36;29.30;99.90
16158;DHT22;8184;60.256;18.694;2023-06-22T13:45:07;29.90;99.90
16158;DHT22;8184;60.256;18.694;2023-06-22T13:47:36;30.40;99.90
16158;DHT22;8184;60.256;18.694;2023-06-22T13:50:04;30.80;99.90
16158;DHT22;8184;60.256;18.694;2023-06-22T13:52:33;29.70;99.90
16158;DHT22;8184;60.256;18.694;2023-06-22T13:55:02;30.20;99.90
16158;DHT22;8184;60.256;18.694;2023-06-22T13:57:32;30.40;99.90
16158;DHT22;8184;60.256;18.694;2023-06-22T14:00:00;29.50;99.90
16158;DHT22;8184;60.256;18.694;2023-06-22T14:02:32;30.20;99.90
16158;DHT22;8184;60.256;18.694;2023-06-22T14:05:06;30.10;99.90
16158;DHT22;8184;60.256;18.694;2023-06-22T14:07:35;29.20;99.90
16158;DHT22;8184;60.256;18.694;2023-06-22T14:10:04;29.20;99.90
16158;DHT22;8184;60.256;18.694;2023-06-22T14:12:32;29.20;99.90
16158;DHT22;8184;60.256;18.694;2023-06-22T14:15:01;29.50;99.90
16158;DHT22;8184;60.256;18.694;2023-06-22T14:17:35;30.10;99.90
16158;DHT22;8184;60.256;18.694;2023-06-22T14:20:04;30.10;99.90
16158;DHT22;8184;60.256;18.694;2023-06-22T14:22:35;30.30;99.90
16158;DHT22;8184;60.256;18.694;2023-06-22T14:25:04;30.10;99.90
16158;DHT22;8184;60.256;18.694;2023-06-22T14:27:32;31.10;99.90
16158;DHT22;8184;60.256;18.694;2023-06-22T14:30:01;31.30;99.90
16158;DHT22;8184;60.256;18.694;2023-06-22T14:32:32;30.10;99.90
16158;DHT22;8184;60.256;18.694;2023-06-22T14:35:02;29.90;99.90
16158;DHT22;8184;60.256;18.694;2023-06-22T14:37:31;28.90;99.90
16158;DHT22;8184;60.256;18.694;2023-06-22T14:39:59;28.00;99.90
16158;DHT22;8184;60.256;18.694;2023-06-22T14:42:28;27.80;99.90
16158;DHT22;8184;60.256;18.694;2023-06-22T14:44:59;27.90;99.90
16158;DHT22;8184;60.256;18.694;2023-06-22T14:47:27;28.10;99.90
16158;DHT22;8184;60.256;18.694;2023-06-22T14:49:56;28.30;99.90
16158;DHT22;8184;60.256;18.694;2023-06-22T14:52:26;28.60;99.90
16158;DHT22;8184;60.256;18.694;2023-06-22T14:54:55;29.60;99.90
16158;DHT22;8184;60.256;18.694;2023-06-22T14:57:23;30.30;99.90
16158;DHT22;8184;60.256;18.694;2023-06-22T14:59:51;30.70;99.90
16158;DHT22;8184;60.256;18.694;2023-06-22T15:02:20;30.00;99.90
16158;DHT22;8184;60.256;18.694;2023-06-22T15:04:49;29.50;99.90
16158;DHT22;8184;60.256;18.694;2023-06-22T15:07:17;29.20;99.90
16158;DHT22;8184;60.256;18.694;2023-06-22T15:09:47;29.10;99.90
16158;DHT22;8184;60.256;18.694;2023-06-22T15:12:15;28.60;99.90
16158;DHT22;8184;60.256;18.694;2023-06-22T15:14:44;28.50;99.90
16158;DHT22;8184;60.256;18.694;2023-06-22T15:17:12;28.90;99.90
16158;DHT22;8184;60.256;18.694;2023-06-22T15:19:42;28.10;99.90
16158;DHT22;8184;60.256;18.694;2023-06-22T15:22:10;28.50;99.90
16158;DHT22;8184;60.256;18.694;2023-06-22T15:24:39;27.70;99.90
16158;DHT22;8184;60.256;18.694;2023-06-22T15:27:09;28.00;99.90
16158;DHT22;8184;60.256;18.694;2023-06-22T15:29:37;27.60;99.90
16158;DHT22;8184;60.256;18.694;2023-06-22T15:32:06;27.70;99.90
16158;DHT22;8184;60.256;18.694;2023-06-22T15:34:34;26.80;99.90
16158;DHT22;8184;60.256;18.694;2023-06-22T15:37:02;26.80;99.90
16158;DHT22;8184;60.256;18.694;2023-06-22T15:39:31;26.90;99.90
16158;DHT22;8184;60.256;18.694;2023-06-22T15:41:59;26.70;99.90
16158;DHT22;8184;60.256;18.694;2023-06-22T15:44:29;26.30;99.90